Time;durP1;ratioP1;P1;durP2;ratioP2;P2;SDS_P1;SDS_P2;PMS_P1;PMS_P2;Temp;Humidity;BMP_temperature;BMP_pressure;BME280_temperature;BME280_humidity;BME280_pressure;Samples;Min_cycle;Max_cycle;Signal;HPM_P1;HPM_P2
2022/03/15 00:01:12;;;;;;;;;;;;;;;-2.72;52.99;103110.99;1701018;83;25726;-58
2022/03/15 00:03:38;;;;;;;;;;;;;;;-2.74;53.30;103118.45;1701028;84;28211;-59
2022/03/15 00:06:05;;;;;;;;;;;;;;;-2.77;53.20;103117.11;1701058;84;25685;-59
2022/03/15 00:08:33;;;;;;;;;;;;;;;-2.82;53.27;103122.36;1701539;84;25788;-59
2022/03/15 00:11:02;;;;;;;;;;;;;;;-2.87;53.40;103118.83;1701076;84;26433;-58
2022/03/15 00:13:30;;;;;;;;;;;;;;;-2.91;53.96;103121.85;1701265;84;25785;-59
2022/03/15 00:15:58;;;;;;;;;;;;;;;-2.93;53.85;103119.67;1701034;84;28764;-59
2022/03/15 00:18:26;;;;;;;;;;;;;;;-2.92;53.59;103124.06;1701139;84;25528;-59
2022/03/15 00:20:53;;;;;;;;;;;;;;;-2.93;53.64;103124.94;1701007;84;25650;-59
2022/03/15 00:23:19;;;;;;;;;;;;;;;-2.95;53.59;103125.77;1701443;84;26501;-59
2022/03/15 00:25:45;;;;;;;;;;;;;;;-2.99;53.72;103131.46;1686108;84;25772;-58
2022/03/15 00:28:12;;;;;;;;;;;;;;;-2.99;53.61;103127.52;1681382;84;27458;-59
2022/03/15 00:30:40;;;;;;;;;;;;;;;-3.01;53.71;103130.15;1682799;85;25809;-59
2022/03/15 00:33:08;;;;;;;;;;;;;;;-3.07;53.95;103126.17;1683035;85;25756;-59
2022/03/15 00:35:35;;;;;;;;;;;;;;;-3.05;53.97;103124.84;1681628;85;25857;-59
2022/03/15 00:38:03;;;;;;;;;;;;;;;-3.03;54.03;103120.48;1681999;85;25795;-59
2022/03/15 00:40:30;;;;;;;;;;;;;;;-3.02;53.86;103122.25;1693453;84;27503;-58
2022/03/15 00:42:56;;;;;;;;;;;;;;;-3.07;53.77;103114.73;1692742;84;25669;-58
2022/03/15 00:45:25;;;;;;;;;;;;;;;-3.12;53.79;103116.02;1692894;84;25500;-59
2022/03/15 00:47:53;;;;;;;;;;;;;;;-3.17;53.83;103117.76;1692964;84;25784;-59
2022/03/15 00:50:21;;;;;;;;;;;;;;;-3.19;53.82;103115.54;1692959;84;25796;-59
2022/03/15 00:52:48;;;;;;;;;;;;;;;-3.19;54.56;103120.39;1692760;84;27090;-58
2022/03/15 00:55:15;;;;;;;;;;;;;;;-3.22;54.24;103115.09;1692694;84;25748;-59
2022/03/15 00:57:44;;;;;;;;;;;;;;;-3.27;54.72;103109.34;1690801;84;25816;-59
2022/03/15 01:00:15;;;;;;;;;;;;;;;-3.31;54.45;103112.39;1701239;84;25926;-59
2022/03/15 01:02:41;;;;;;;;;;;;;;;-3.35;54.40;103107.96;1701327;84;25938;-59
2022/03/15 01:05:09;;;;;;;;;;;;;;;-3.39;54.57;103104.43;1701441;84;27553;-59
2022/03/15 01:07:38;;;;;;;;;;;;;;;-3.42;54.59;103096.53;1701253;83;25801;-59
2022/03/15 01:10:08;;;;;;;;;;;;;;;-3.48;54.60;103093.83;1701529;84;25795;-59
2022/03/15 01:12:34;;;;;;;;;;;;;;;-3.55;54.43;103087.67;1701455;84;26253;-59
2022/03/15 01:15:01;;;;;;;;;;;;;;;-3.54;54.96;103095.98;1701482;84;25801;-58
2022/03/15 01:17:27;;;;;;;;;;;;;;;-3.59;54.53;103092.89;1701397;84;27486;-59
2022/03/15 01:19:54;;;;;;;;;;;;;;;-3.60;54.58;103085.41;1701380;84;25845;-59
2022/03/15 01:22:21;;;;;;;;;;;;;;;-3.60;54.84;103082.78;1701390;84;25709;-59
2022/03/15 01:24:47;;;;;;;;;;;;;;;-3.64;55.01;103083.20;1702363;84;27882;-59
2022/03/15 01:27:15;;;;;;;;;;;;;;;-3.65;55.51;103089.77;1704300;84;25743;-59
2022/03/15 01:29:42;;;;;;;;;;;;;;;-3.67;55.64;103096.77;1707701;83;27554;-58
2022/03/15 01:32:09;;;;;;;;;;;;;;;-3.74;55.89;103091.88;1715522;83;25499;-58
2022/03/15 01:34:36;;;;;;;;;;;;;;;-3.81;55.55;103095.33;1715519;83;25743;-58
2022/03/15 01:37:03;;;;;;;;;;;;;;;-3.81;55.51;103094.02;1715590;83;25850;-59
2022/03/15 01:39:30;;;;;;;;;;;;;;;-3.80;55.63;103097.09;1714783;83;25680;-59
2022/03/15 01:41:57;;;;;;;;;;;;;;;-3.79;55.50;103101.04;1701275;84;28156;-59
2022/03/15 01:44:26;;;;;;;;;;;;;;;-3.77;55.44;103100.63;1701137;84;25520;-59
2022/03/15 01:46:53;;;;;;;;;;;;;;;-3.78;55.48;103098.00;1701099;84;26201;-58
2022/03/15 01:49:21;;;;;;;;;;;;;;;-3.79;55.31;103089.66;1706407;84;25759;-58
2022/03/15 01:51:50;;;;;;;;;;;;;;;-3.79;55.53;103091.84;1708327;84;26345;-59
2022/03/15 01:54:20;;;;;;;;;;;;;;;-3.81;55.80;103086.12;1708409;84;27468;-59
2022/03/15 01:56:47;;;;;;;;;;;;;;;-3.87;55.40;103086.08;1706046;84;25706;-59
2022/03/15 01:59:15;;;;;;;;;;;;;;;-3.90;55.43;103093.92;1680195;84;25584;-59
2022/03/15 02:01:42;;;;;;;;;;;;;;;-3.94;55.49;103094.34;1679811;85;25833;-58
2022/03/15 02:04:10;;;;;;;;;;;;;;;-3.95;55.53;103086.00;1680065;84;26269;-58
2022/03/15 02:06:37;;;;;;;;;;;;;;;-3.90;55.78;103086.94;1679573;85;27533;-59
2022/03/15 02:09:11;;;;;;;;;;;;;;;-3.88;55.78;103097.02;1679956;85;25717;-59
2022/03/15 02:11:37;;;;;;;;;;;;;;;-3.88;55.49;103095.70;1680126;85;25798;-59
2022/03/15 02:14:05;;;;;;;;;;;;;;;-3.91;55.65;103096.11;1680110;85;25770;-59
2022/03/15 02:16:32;;;;;;;;;;;;;;;-3.97;56.10;103099.55;1680031;84;25441;-59
2022/03/15 02:19:00;;;;;;;;;;;;;;;-3.98;56.31;103097.37;1679852;84;27108;-59
2022/03/15 02:21:27;;;;;;;;;;;;;;;-3.99;56.04;103099.55;1679735;85;25686;-59
2022/03/15 02:23:55;;;;;;;;;;;;;;;-4.01;56.15;103104.34;1680002;85;25788;-59
2022/03/15 02:26:21;;;;;;;;;;;;;;;-4.01;56.33;103103.03;1652488;86;25829;-59
2022/03/15 02:28:48;;;;;;;;;;;;;;;-4.04;56.31;103110.87;1652443;85;25754;-59
2022/03/15 02:31:15;;;;;;;;;;;;;;;-4.09;56.23;103110.83;1648054;87;27447;-59
2022/03/15 02:33:42;;;;;;;;;;;;;;;-4.18;56.28;103109.42;1647744;87;25693;-58
2022/03/15 02:36:09;;;;;;;;;;;;;;;-4.22;56.64;103115.08;1650338;87;25723;-58
2022/03/15 02:38:36;;;;;;;;;;;;;;;-4.23;56.51;103115.94;1652492;87;25772;-58
2022/03/15 02:41:03;;;;;;;;;;;;;;;-4.25;56.55;103114.63;1669115;84;26101;-59
2022/03/15 02:43:30;;;;;;;;;;;;;;;-4.25;56.53;103119.88;1682238;85;27557;-59
2022/03/15 02:45:57;;;;;;;;;;;;;;;-4.32;57.23;103108.85;1674373;85;25758;-58
2022/03/15 02:48:23;;;;;;;;;;;;;;;-4.37;57.08;103111.84;1673143;85;25757;-59
2022/03/15 02:50:50;;;;;;;;;;;;;;;-4.38;56.94;103113.15;1673229;85;25793;-59
2022/03/15 02:53:18;;;;;;;;;;;;;;;-4.37;57.36;103125.43;1672985;83;25791;-59
2022/03/15 02:55:46;;;;;;;;;;;;;;;-4.35;57.19;103118.45;1672902;85;27527;-59
2022/03/15 02:58:14;;;;;;;;;;;;;;;-4.36;57.07;103116.23;1680353;84;25804;-58
2022/03/15 03:00:41;;;;;;;;;;;;;;;-4.34;56.92;103114.52;1692712;84;25777;-58
2022/03/15 03:03:08;;;;;;;;;;;;;;;-4.32;57.03;103114.52;1692877;84;26935;-58
2022/03/15 03:05:35;;;;;;;;;;;;;;;-4.31;57.07;103111.94;1692858;84;25465;-59
2022/03/15 03:08:04;;;;;;;;;;;;;;;-4.29;57.10;103107.55;1692581;84;28275;-59
2022/03/15 03:10:30;;;;;;;;;;;;;;;-4.27;57.23;103114.16;1692813;84;26166;-59
2022/03/15 03:12:58;;;;;;;;;;;;;;;-4.25;56.98;103117.25;1692943;84;25717;-59
2022/03/15 03:15:24;;;;;;;;;;;;;;;-4.27;56.76;103116.79;1692780;84;25834;-59
2022/03/15 03:17:51;;;;;;;;;;;;;;;-4.29;56.79;103114.57;1692684;84;25796;-59
2022/03/15 03:20:19;;;;;;;;;;;;;;;-4.31;56.80;103112.34;1692715;84;27496;-59
2022/03/15 03:22:47;;;;;;;;;;;;;;;-4.35;56.89;103105.31;1692768;84;26065;-58
2022/03/15 03:25:15;;;;;;;;;;;;;;;-4.41;57.07;103105.67;1683554;84;25769;-59
2022/03/15 03:27:42;;;;;;;;;;;;;;;-4.46;57.09;103103.44;1676352;85;26438;-59
2022/03/15 03:30:10;;;;;;;;;;;;;;;-4.52;57.19;103099.40;1676349;85;25500;-58
2022/03/15 03:32:36;;;;;;;;;;;;;;;-4.56;57.24;103101.11;1676440;85;27105;-59
2022/03/15 03:35:05;;;;;;;;;;;;;;;-4.56;57.59;103100.25;1675975;85;25844;-58
2022/03/15 03:37:32;;;;;;;;;;;;;;;-4.61;57.83;103099.28;1676681;85;25773;-59
2022/03/15 03:40:00;;;;;;;;;;;;;;;-4.65;58.09;103098.82;1676189;85;25804;-59
2022/03/15 03:42:26;;;;;;;;;;;;;;;-4.70;57.71;103097.45;1676192;85;25508;-59
2022/03/15 03:44:53;;;;;;;;;;;;;;;-4.70;57.77;103094.82;1676276;85;27492;-59
2022/03/15 03:47:20;;;;;;;;;;;;;;;-4.71;57.72;103093.92;1676127;85;25476;-59
2022/03/15 03:49:47;;;;;;;;;;;;;;;-4.73;57.85;103087.79;1676083;84;25789;-59
2022/03/15 03:52:14;;;;;;;;;;;;;;;-4.77;57.95;103091.22;1657503;86;25784;-59
2022/03/15 03:54:40;;;;;;;;;;;;;;;-4.83;57.92;103085.00;1657547;86;25704;-59
2022/03/15 03:57:07;;;;;;;;;;;;;;;-4.83;58.01;103078.03;1657442;86;27666;-60
2022/03/15 03:59:33;;;;;;;;;;;;;;;-4.79;57.96;103084.20;1691279;85;25458;-60
2022/03/15 04:02:00;;;;;;;;;;;;;;;-4.78;57.91;103082.02;1691236;85;25729;-60
2022/03/15 04:04:28;;;;;;;;;;;;;;;-4.77;57.81;103089.05;1691604;85;25779;-59
2022/03/15 04:06:55;;;;;;;;;;;;;;;-4.77;58.03;103091.22;1691283;85;25672;-59
2022/03/15 04:09:23;;;;;;;;;;;;;;;-4.78;57.84;103093.84;1691150;85;28332;-60
2022/03/15 04:11:49;;;;;;;;;;;;;;;-4.87;57.75;103084.08;1691477;84;25858;-59
2022/03/15 04:14:15;;;;;;;;;;;;;;;-4.90;57.92;103086.25;1691724;84;25688;-60
2022/03/15 04:16:42;;;;;;;;;;;;;;;-4.87;57.95;103083.67;1691214;83;25803;-60
2022/03/15 04:19:09;;;;;;;;;;;;;;;-4.91;57.94;103075.73;1691478;85;25506;-59
2022/03/15 04:21:36;;;;;;;;;;;;;;;-4.90;57.76;103068.31;1691414;85;27475;-59
2022/03/15 04:24:05;;;;;;;;;;;;;;;-4.90;57.90;103065.24;1691335;85;25786;-60
2022/03/15 04:26:31;;;;;;;;;;;;;;;-4.91;58.90;103064.78;1691299;85;25789;-60
2022/03/15 04:28:58;;;;;;;;;;;;;;;-4.90;59.06;103072.25;1691328;84;25784;-60
2022/03/15 04:31:24;;;;;;;;;;;;;;;-4.93;58.58;103072.20;1691407;85;25794;-60
2022/03/15 04:33:51;;;;;;;;;;;;;;;-4.99;58.33;103065.12;1691135;85;27470;-59
2022/03/15 04:36:18;;;;;;;;;;;;;;;-5.01;58.25;103079.09;1691349;85;25451;-59
2022/03/15 04:38:46;;;;;;;;;;;;;;;-5.06;58.16;103074.64;1691519;83;25621;-60
2022/03/15 04:41:13;;;;;;;;;;;;;;;-5.08;58.28;103070.24;1692101;84;25800;-59
2022/03/15 04:43:40;;;;;;;;;;;;;;;-5.11;58.48;103069.78;1686865;84;25796;-59
2022/03/15 04:46:06;;;;;;;;;;;;;;;-5.09;58.47;103065.44;1686054;84;28171;-59
2022/03/15 04:48:35;;;;;;;;;;;;;;;-5.05;58.48;103061.11;1685683;85;27234;-59
2022/03/15 04:51:04;;;;;;;;;;;;;;;-5.00;58.64;103054.61;1685914;84;25792;-60
2022/03/15 04:53:30;;;;;;;;;;;;;;;-4.97;58.26;103054.22;1685786;85;25858;-59
2022/03/15 04:55:57;;;;;;;;;;;;;;;-5.02;58.71;103054.60;1685926;85;25738;-60
2022/03/15 04:58:25;;;;;;;;;;;;;;;-5.08;58.32;103058.43;1680394;84;26641;-60
2022/03/15 05:00:51;;;;;;;;;;;;;;;-5.08;58.63;103058.43;1685627;85;26142;-58
2022/03/15 05:03:18;;;;;;;;;;;;;;;-5.01;59.49;103067.28;1685945;84;25688;-59
2022/03/15 05:05:45;;;;;;;;;;;;;;;-4.97;59.09;103057.25;1685893;85;25834;-60
2022/03/15 05:08:11;;;;;;;;;;;;;;;-4.97;59.05;103067.34;1685980;84;25762;-60
2022/03/15 05:13:25;;;;;;;;;;;;;;;-5.00;58.87;103065.98;1685872;85;27280;-60
2022/03/15 05:15:53;;;;;;;;;;;;;;;-4.95;58.74;103055.53;1685847;85;25643;-59
2022/03/15 05:18:20;;;;;;;;;;;;;;;-4.89;58.86;103057.82;1685880;85;25783;-60
2022/03/15 05:20:47;;;;;;;;;;;;;;;-4.83;58.52;103047.83;1685714;85;25771;-60
2022/03/15 05:23:13;;;;;;;;;;;;;;;-4.79;58.78;103050.92;1686056;85;27652;-60
2022/03/15 05:25:40;;;;;;;;;;;;;;;-4.74;58.69;103049.25;1707012;83;25766;-60
2022/03/15 05:28:11;;;;;;;;;;;;;;;-4.67;59.08;103054.57;1715667;83;25648;-60
2022/03/15 05:30:39;;;;;;;;;;;;;;;-4.59;59.52;103047.66;1714985;83;25925;-60
2022/03/15 05:33:06;;;;;;;;;;;;;;;-4.56;59.05;103051.64;1715245;83;26367;-60
2022/03/15 05:35:34;;;;;;;;;;;;;;;-4.49;59.17;103053.92;1714898;83;27479;-60
2022/03/15 05:38:02;;;;;;;;;;;;;;;-4.44;58.69;103054.39;1715293;83;25724;-60
2022/03/15 05:40:30;;;;;;;;;;;;;;;-4.38;58.72;103060.59;1714979;83;25779;-60
2022/03/15 05:42:58;;;;;;;;;;;;;;;-4.35;58.96;103063.27;1705617;83;25778;-58
2022/03/15 05:45:27;;;;;;;;;;;;;;;-4.22;58.99;103059.02;1704882;83;25487;-59
2022/03/15 05:47:54;;;;;;;;;;;;;;;-4.11;59.15;103071.81;1705383;84;28315;-59
2022/03/15 05:50:22;;;;;;;;;;;;;;;-3.97;59.09;103074.58;1705138;83;25853;-60
2022/03/15 05:52:49;;;;;;;;;;;;;;;-3.83;59.02;103085.22;1705155;83;25749;-59
2022/03/15 05:55:16;;;;;;;;;;;;;;;-3.69;58.95;103070.87;1686469;84;26426;-59
2022/03/15 05:57:42;;;;;;;;;;;;;;;-3.59;58.59;103076.66;1682471;85;25480;-58
2022/03/15 06:00:11;;;;;;;;;;;;;;;-3.44;58.95;103078.94;1690791;85;27483;-59
2022/03/15 06:02:40;;;;;;;;;;;;;;;-3.34;59.32;103086.94;1690720;83;25732;-59
2022/03/15 06:05:10;;;;;;;;;;;;;;;-3.27;58.68;103091.78;1691110;83;25716;-59
2022/03/15 06:07:46;;;;;;;;;;;;;;;-3.19;58.60;103095.38;1690868;83;25741;-59
2022/03/15 06:10:13;;;;;;;;;;;;;;;-3.16;59.45;103095.83;1690490;84;25904;-59
2022/03/15 06:12:40;;;;;;;;;;;;;;;-3.08;59.17;103079.64;1690830;85;27409;-59
2022/03/15 06:15:09;;;;;;;;;;;;;;;-2.93;59.09;103074.89;1690553;83;25714;-60
2022/03/15 06:17:56;;;;;;;;;;;;;;;-2.76;59.16;103074.09;1690960;83;25764;-61
2022/03/15 06:20:21;;;;;;;;;;;;;;;-2.57;59.27;103069.75;1702575;83;25909;-60
2022/03/15 06:22:49;;;;;;;;;;;;;;;-2.37;59.09;103064.53;1690814;85;25638;-60
2022/03/15 06:25:18;;;;;;;;;;;;;;;-2.21;58.90;103067.67;1682457;83;28284;-60
2022/03/15 06:27:45;;;;;;;;;;;;;;;-2.06;58.84;103067.24;1676449;85;25794;-60
2022/03/15 06:30:16;;;;;;;;;;;;;;;-1.94;58.48;103065.95;1676068;85;25484;-61
2022/03/15 06:32:42;;;;;;;;;;;;;;;-1.81;58.27;103065.94;1676519;85;25735;-59
2022/03/15 06:35:10;;;;;;;;;;;;;;;-1.68;57.91;103055.84;1675992;85;25782;-59
2022/03/15 06:37:39;;;;;;;;;;;;;;;-1.58;57.75;103053.63;1676210;85;27495;-59
2022/03/15 06:40:08;;;;;;;;;;;;;;;-1.47;57.68;103056.67;1675907;85;25934;-58
2022/03/15 06:42:34;;;;;;;;;;;;;;;-1.39;57.45;103056.67;1676321;85;25899;-59
2022/03/15 06:45:01;;;;;;;;;;;;;;;-1.32;57.41;103043.47;1676244;85;25762;-59
2022/03/15 06:47:28;;;;;;;;;;;;;;;-1.24;57.49;103051.81;1676064;85;25729;-59
2022/03/15 06:49:54;;;;;;;;;;;;;;;-1.18;57.25;103050.05;1676461;85;28306;-59
2022/03/15 06:52:21;;;;;;;;;;;;;;;-1.05;57.29;103048.66;1675981;85;25709;-59
2022/03/15 06:54:47;;;;;;;;;;;;;;;-0.94;56.91;103041.59;1676361;85;26453;-59
2022/03/15 06:57:14;;;;;;;;;;;;;;;-0.91;56.83;103040.69;1686791;83;25837;-59
2022/03/15 06:59:41;;;;;;;;;;;;;;;-0.86;56.53;103038.92;1677570;83;25784;-58
2022/03/15 07:02:07;;;;;;;;;;;;;;;-0.82;56.54;103047.27;1676053;85;29641;-58
2022/03/15 07:04:34;;;;;;;;;;;;;;;-0.74;56.49;103053.39;1676144;85;25772;-58
2022/03/15 07:07:00;;;;;;;;;;;;;;;-0.66;56.38;103052.91;1676491;85;25757;-58
2022/03/15 07:09:27;;;;;;;;;;;;;;;-0.56;56.61;103063.44;1676256;85;25973;-59
2022/03/15 07:11:54;;;;;;;;;;;;;;;-0.51;56.96;103066.96;1676340;85;25704;-58
2022/03/15 07:14:20;;;;;;;;;;;;;;;-0.43;56.83;103073.09;1676322;85;27493;-58
2022/03/15 07:16:47;;;;;;;;;;;;;;;-0.36;56.50;103082.73;1676110;85;25819;-58
2022/03/15 07:19:13;;;;;;;;;;;;;;;-0.27;56.29;103084.89;1676185;85;25455;-58
2022/03/15 07:21:40;;;;;;;;;;;;;;;-0.17;56.00;103086.14;1675861;85;25810;-58
2022/03/15 07:24:07;;;;;;;;;;;;;;;-0.05;55.96;103084.31;1677273;85;25768;-58
2022/03/15 07:26:35;;;;;;;;;;;;;;;0.06;55.72;103078.51;1676145;85;27421;-58
2022/03/15 07:29:02;;;;;;;;;;;;;;;0.18;55.53;103076.66;1663922;86;25825;-58
2022/03/15 07:31:29;;;;;;;;;;;;;;;0.27;55.35;103067.33;1663624;85;25706;-59
2022/03/15 07:33:56;;;;;;;;;;;;;;;0.39;54.67;103065.88;1670885;86;26388;-58
2022/03/15 07:36:22;;;;;;;;;;;;;;;0.54;54.84;103065.33;1670226;85;25729;-58
2022/03/15 07:38:49;;;;;;;;;;;;;;;0.65;53.99;103062.56;1669107;86;28353;-58
2022/03/15 07:41:16;;;;;;;;;;;;;;;0.77;53.95;103054.03;1715574;83;25758;-58
2022/03/15 07:43:43;;;;;;;;;;;;;;;0.94;53.54;103059.13;1708577;82;25613;-58
2022/03/15 07:46:10;;;;;;;;;;;;;;;1.07;53.30;103065.20;1715716;83;26281;-58
2022/03/15 07:48:36;;;;;;;;;;;;;;;1.22;52.57;103064.57;1693263;83;26023;-60
2022/03/15 07:51:03;;;;;;;;;;;;;;;1.35;52.49;103064.83;1656526;86;27502;-59
2022/03/15 07:53:29;;;;;;;;;;;;;;;1.51;52.45;103053.58;1658666;86;25737;-59
2022/03/15 07:55:59;;;;;;;;;;;;;;;1.64;52.46;103051.62;1658657;86;25638;-58
2022/03/15 07:58:29;;;;;;;;;;;;;;;1.78;52.24;103054.08;1659012;86;25911;-59
2022/03/15 08:00:57;;;;;;;;;;;;;;;1.91;51.99;103049.92;1659069;86;25747;-58
2022/03/15 08:03:24;;;;;;;;;;;;;;;2.04;51.89;103050.14;1659268;86;28248;-59
2022/03/15 08:05:51;;;;;;;;;;;;;;;2.19;51.93;103045.93;1658894;86;25811;-59
2022/03/15 08:08:18;;;;;;;;;;;;;;;2.37;51.87;103037.22;1658924;86;26395;-59
2022/03/15 08:10:45;;;;;;;;;;;;;;;2.55;51.50;103028.48;1658882;86;25803;-59
2022/03/15 08:13:11;;;;;;;;;;;;;;;2.73;51.44;103021.94;1659728;85;26050;-58
2022/03/15 08:15:38;;;;;;;;;;;;;;;2.93;51.57;103016.22;1670047;86;27648;-59
2022/03/15 08:18:06;;;;;;;;;;;;;;;3.15;50.33;103013.98;1636271;86;25832;-59
2022/03/15 08:20:33;;;;;;;;;;;;;;;3.34;50.41;103006.94;1659506;85;25730;-59
2022/03/15 08:23:00;;;;;;;;;;;;;;;3.55;49.89;103002.47;1659454;85;25815;-59
2022/03/15 08:25:28;;;;;;;;;;;;;;;3.72;49.50;102994.06;1659160;86;25789;-59
2022/03/15 08:27:55;;;;;;;;;;;;;;;3.90;48.64;102992.76;1658942;86;28179;-58
2022/03/15 08:30:21;;;;;;;;;;;;;;;4.04;47.25;102984.86;1663702;86;25816;-58
2022/03/15 08:32:48;;;;;;;;;;;;;;;4.22;47.29;102985.72;1670427;86;25803;-58
2022/03/15 08:35:14;;;;;;;;;;;;;;;4.43;47.49;102974.55;1670084;85;25800;-58
2022/03/15 08:37:42;;;;;;;;;;;;;;;4.68;47.65;102971.61;1670100;85;25683;-58
2022/03/15 08:40:11;;;;;;;;;;;;;;;4.92;45.87;102959.81;1670066;86;27624;-58
2022/03/15 08:42:38;;;;;;;;;;;;;;;5.14;46.05;102960.52;1670092;84;25696;-58
2022/03/15 08:45:06;;;;;;;;;;;;;;;5.39;45.64;102954.41;1670118;86;25780;-58
2022/03/15 08:47:33;;;;;;;;;;;;;;;5.68;46.35;102953.93;1670131;85;26529;-59
2022/03/15 08:50:00;;;;;;;;;;;;;;;6.00;43.82;102945.31;1669977;86;25791;-58
2022/03/15 08:52:26;;;;;;;;;;;;;;;6.25;43.58;102939.52;1670049;86;27551;-59
2022/03/15 08:54:53;;;;;;;;;;;;;;;6.55;43.19;102937.12;1669849;86;25919;-58
2022/03/15 08:57:19;;;;;;;;;;;;;;;6.83;43.98;102938.31;1670158;85;25711;-59
2022/03/15 08:59:46;;;;;;;;;;;;;;;7.18;43.04;102937.86;1699718;84;26177;-58
2022/03/15 09:02:13;;;;;;;;;;;;;;;7.52;42.88;102936.52;1693960;84;25890;-58
2022/03/15 09:04:40;;;;;;;;;;;;;;;7.83;42.21;102941.48;1661793;86;27402;-59
2022/03/15 09:07:06;;;;;;;;;;;;;;;8.18;39.67;102941.36;1658522;86;25864;-59
2022/03/15 09:09:33;;;;;;;;;;;;;;;8.48;40.30;102940.50;1658651;85;25762;-60
2022/03/15 09:11:59;;;;;;;;;;;;;;;8.81;38.79;102934.52;1658942;86;26409;-60
2022/03/15 09:14:26;;;;;;;;;;;;;;;9.13;38.31;102936.62;1658627;85;25804;-58
2022/03/15 09:16:52;;;;;;;;;;;;;;;9.51;38.30;102934.75;1658459;85;27530;-59
2022/03/15 09:19:19;;;;;;;;;;;;;;;9.86;35.17;102931.24;1658383;86;25802;-59
2022/03/15 09:21:46;;;;;;;;;;;;;;;10.01;35.64;102930.45;1657579;86;25735;-59
2022/03/15 09:24:13;;;;;;;;;;;;;;;10.28;35.60;102932.64;1657375;86;26368;-59
2022/03/15 09:26:42;;;;;;;;;;;;;;;10.49;32.93;102925.77;1668714;86;25775;-59
2022/03/15 09:29:13;;;;;;;;;;;;;;;10.72;33.97;102915.55;1668948;86;27663;-59
2022/03/15 09:31:40;;;;;;;;;;;;;;;11.15;33.88;102909.13;1668954;84;25797;-58
2022/03/15 09:34:06;;;;;;;;;;;;;;;11.80;33.86;102904.48;1669249;86;25755;-60
2022/03/15 09:36:34;;;;;;;;;;;;;;;12.43;34.26;102899.80;1669125;86;26560;-60
2022/03/15 09:39:01;;;;;;;;;;;;;;;12.93;31.97;102893.49;1632685;88;25753;-59
2022/03/15 09:41:28;;;;;;;;;;;;;;;13.27;30.12;102892.13;1632660;88;26833;-59
2022/03/15 09:43:57;;;;;;;;;;;;;;;13.52;29.35;102882.89;1624213;86;25820;-59
2022/03/15 09:46:25;;;;;;;;;;;;;;;13.96;29.03;102878.97;1629031;87;25549;-59
2022/03/15 09:48:53;;;;;;;;;;;;;;;14.45;29.61;102875.13;1627048;88;25809;-59
2022/03/15 09:51:21;;;;;;;;;;;;;;;14.88;29.71;102873.39;1627182;88;25808;-58
2022/03/15 09:53:49;;;;;;;;;;;;;;;15.34;26.66;102867.24;1628047;88;27572;-59
2022/03/15 09:56:18;;;;;;;;;;;;;;;15.83;29.68;102869.01;1675041;85;25695;-59
2022/03/15 09:58:46;;;;;;;;;;;;;;;15.68;25.25;102878.73;1667372;85;25794;-59
2022/03/15 10:01:17;;;;;;;;;;;;;;;15.72;27.77;102867.14;1649685;87;25712;-58
2022/03/15 10:03:44;;;;;;;;;;;;;;;16.04;27.00;102865.13;1649788;87;25758;-60
2022/03/15 10:06:15;;;;;;;;;;;;;;;15.94;25.48;102865.01;1649437;86;27465;-59
2022/03/15 10:08:43;;;;;;;;;;;;;;;15.55;25.79;102869.31;1649299;87;25877;-58
2022/03/15 10:11:09;;;;;;;;;;;;;;;14.75;25.49;102868.52;1649605;87;25659;-59
2022/03/15 10:13:36;;;;;;;;;;;;;;;14.53;26.75;102860.55;1649809;87;25781;-60
2022/03/15 10:16:04;;;;;;;;;;;;;;;14.59;27.59;102851.97;1649568;87;26012;-58
2022/03/15 10:18:31;;;;;;;;;;;;;;;14.77;26.39;102848.45;1642381;87;27497;-59
2022/03/15 10:20:58;;;;;;;;;;;;;;;15.12;26.61;102839.53;1649209;87;25801;-59
2022/03/15 10:23:29;;;;;;;;;;;;;;;15.45;26.26;102833.02;1648323;86;25727;-59
2022/03/15 10:25:53;;;;;;;;;;;;;;;15.56;27.67;102822.69;1648828;85;25798;-59
2022/03/15 10:28:20;;;;;;;;;;;;;;;15.38;26.72;102824.95;1651613;85;25793;-58
2022/03/15 10:30:48;;;;;;;;;;;;;;;15.36;26.82;102817.45;1631289;87;27912;-59
2022/03/15 10:33:16;;;;;;;;;;;;;;;15.57;26.28;102811.70;1651821;87;25773;-58
2022/03/15 10:35:45;;;;;;;;;;;;;;;15.63;26.03;102805.83;1651081;86;25773;-59
2022/03/15 10:38:12;;;;;;;;;;;;;;;16.28;25.66;102798.00;1652192;87;26523;-58
2022/03/15 10:40:45;;;;;;;;;;;;;;;17.06;26.82;102791.70;1651825;85;25706;-59
2022/03/15 10:43:20;;;;;;;;;;;;;;;17.35;23.34;102788.33;1651945;87;28374;-60
2022/03/15 10:45:56;;;;;;;;;;;;;;;17.18;22.77;102783.84;1645988;84;25473;-58
2022/03/15 10:48:26;;;;;;;;;;;;;;;16.54;23.14;102786.00;1634475;87;26442;-60
2022/03/15 10:50:59;;;;;;;;;;;;;;;16.36;23.44;102777.02;1643389;86;26554;-58
2022/03/15 10:53:30;;;;;;;;;;;;;;;16.34;23.37;102771.34;1640976;86;25666;-58
2022/03/15 10:56:15;;;;;;;;;;;;;;;16.47;24.16;102769.33;1648923;85;27683;-59
2022/03/15 10:58:54;;;;;;;;;;;;;;;16.66;24.21;102767.81;1656880;86;25937;-58
2022/03/15 11:01:23;;;;;;;;;;;;;;;16.98;23.63;102755.63;1663196;86;25866;-59
2022/03/15 11:04:02;;;;;;;;;;;;;;;17.15;23.02;102754.20;1638242;86;25836;-58
2022/03/15 11:06:32;;;;;;;;;;;;;;;17.05;23.82;102749.19;1626255;87;25760;-59
2022/03/15 11:09:00;;;;;;;;;;;;;;;17.01;24.19;102744.50;1661653;85;27572;-59
2022/03/15 11:11:27;;;;;;;;;;;;;;;16.96;24.46;102745.37;1665510;85;25946;-59
2022/03/15 11:14:02;;;;;;;;;;;;;;;16.61;23.31;102739.66;1654946;84;26427;-59
2022/03/15 11:16:35;;;;;;;;;;;;;;;16.12;23.37;102739.14;1664474;84;25791;-59
2022/03/15 11:19:03;;;;;;;;;;;;;;;15.92;24.46;102733.47;1660618;84;25826;-59
2022/03/15 11:21:32;;;;;;;;;;;;;;;15.79;24.27;102729.98;1654790;84;28453;-58
2022/03/15 11:24:00;;;;;;;;;;;;;;;15.57;24.31;102733.04;1656498;85;26393;-58
2022/03/15 11:26:30;;;;;;;;;;;;;;;15.27;24.14;102729.53;1654184;85;25802;-58
2022/03/15 11:28:57;;;;;;;;;;;;;;;14.94;24.18;102725.73;1654934;86;25913;-58
2022/03/15 11:31:24;;;;;;;;;;;;;;;14.76;25.35;102725.27;1658346;86;25855;-58
2022/03/15 11:33:54;;;;;;;;;;;;;;;14.73;25.24;102716.89;1662950;85;27492;-58
2022/03/15 11:36:23;;;;;;;;;;;;;;;14.72;25.86;102716.52;1646264;86;25797;-58
2022/03/15 11:38:52;;;;;;;;;;;;;;;14.72;25.61;102702.97;1652095;85;25656;-58
2022/03/15 11:41:21;;;;;;;;;;;;;;;14.65;25.69;102708.45;1645732;86;25885;-58
2022/03/15 11:44:08;;;;;;;;;;;;;;;14.67;25.63;102703.82;1657068;84;25794;-59
2022/03/15 11:46:37;;;;;;;;;;;;;;;14.74;24.81;102698.81;1674300;84;27501;-59
2022/03/15 11:49:20;;;;;;;;;;;;;;;14.61;25.22;102693.42;1688231;84;25760;-58
2022/03/15 11:52:08;;;;;;;;;;;;;;;14.64;25.34;102689.99;1688124;84;25781;-59
2022/03/15 11:54:55;;;;;;;;;;;;;;;14.55;24.98;102695.59;1687724;84;25802;-58
2022/03/15 11:57:25;;;;;;;;;;;;;;;14.46;25.65;102694.08;1686667;84;25713;-59
2022/03/15 11:59:53;;;;;;;;;;;;;;;14.50;25.54;102694.20;1686050;84;27546;-59
2022/03/15 12:02:32;;;;;;;;;;;;;;;14.49;25.55;102687.06;1667058;84;25976;-59
2022/03/15 12:04:59;;;;;;;;;;;;;;;14.43;25.18;102688.88;1678423;84;25777;-58
2022/03/15 12:07:47;;;;;;;;;;;;;;;14.37;25.27;102673.95;1687934;84;25835;-59
2022/03/15 12:10:28;;;;;;;;;;;;;;;14.39;25.08;102678.78;1690635;84;25645;-59
2022/03/15 12:13:01;;;;;;;;;;;;;;;14.27;25.23;102677.85;1681618;84;27668;-59
2022/03/15 12:15:39;;;;;;;;;;;;;;;14.24;25.56;102679.42;1701213;84;25775;-59
2022/03/15 12:21:03;;;;;;;;;;;;;;;14.25;25.27;102673.03;1684731;84;25800;-58
2022/03/15 12:23:39;;;;;;;;;;;;;;;14.28;25.06;102667.88;1693517;84;25831;-59
2022/03/15 12:26:21;;;;;;;;;;;;;;;14.24;25.74;102673.53;1678813;84;28026;-60
2022/03/15 12:29:07;;;;;;;;;;;;;;;14.25;24.94;102666.27;1694864;84;25427;-59
2022/03/15 12:31:39;;;;;;;;;;;;;;;14.32;24.70;102661.27;1695303;84;25831;-58
2022/03/15 12:34:09;;;;;;;;;;;;;;;14.23;24.94;102664.16;1695078;84;25836;-58
2022/03/15 12:36:54;;;;;;;;;;;;;;;14.13;25.21;102657.22;1694620;84;26180;-58
2022/03/15 12:39:23;;;;;;;;;;;;;;;14.04;25.17;102650.63;1689856;84;27898;-58
2022/03/15 12:42:10;;;;;;;;;;;;;;;14.15;26.00;102637.68;1691647;84;25743;-58
2022/03/15 12:44:49;;;;;;;;;;;;;;;14.38;25.98;102640.49;1688037;83;25699;-58
2022/03/15 12:47:21;;;;;;;;;;;;;;;14.54;25.36;102634.79;1645818;86;26618;-59
2022/03/15 12:50:12;;;;;;;;;;;;;;;14.54;25.31;102629.38;1646123;87;25977;-59